createdAt,value
2023-01-20T00:00:45.934Z,-0.09
2023-01-20T00:03:33.948Z,-0.08
2023-01-20T00:06:22.867Z,-0.10
2023-01-20T00:09:23.072Z,-0.09
2023-01-20T00:12:10.733Z,-0.09
2023-01-20T00:15:00.030Z,-0.07
2023-01-20T00:17:47.904Z,-0.06
2023-01-20T00:20:35.949Z,-0.05
2023-01-20T00:23:24.001Z,-0.03
2023-01-20T00:26:14.735Z,-0.01
2023-01-20T00:29:02.572Z,-0.01
2023-01-20T00:31:52.353Z,-0.01
2023-01-20T00:34:40.251Z,0.00
2023-01-20T00:37:28.094Z,0.01
2023-01-20T00:40:16.240Z,0.03
2023-01-20T00:43:06.357Z,0.04
2023-01-20T00:45:54.051Z,0.04
2023-01-20T00:48:44.001Z,0.04
2023-01-20T00:51:31.777Z,0.04
2023-01-20T00:54:19.599Z,0.03
2023-01-20T00:57:09.790Z,0.02
2023-01-20T00:59:58.032Z,0.03
2023-01-20T01:02:45.945Z,0.01
2023-01-20T01:05:35.256Z,0.03
2023-01-20T01:08:22.899Z,0.05
2023-01-20T01:11:11.850Z,0.04
2023-01-20T01:13:59.660Z,0.05
2023-01-20T01:16:47.799Z,0.05
2023-01-20T01:19:35.503Z,0.03
2023-01-20T01:22:25.046Z,0.03
2023-01-20T01:25:13.060Z,0.00
2023-01-20T01:28:01.290Z,0.01
2023-01-20T01:30:49.220Z,0.00
2023-01-20T01:33:37.550Z,-0.01
2023-01-20T01:36:25.508Z,-0.03
2023-01-20T01:39:14.892Z,-0.04
2023-01-20T01:42:02.529Z,-0.02
2023-01-20T01:45:22.327Z,-0.01
2023-01-20T01:48:11.750Z,-0.01
2023-01-20T01:51:02.775Z,-0.01
2023-01-20T01:53:57.393Z,-0.01
2023-01-20T01:56:49.046Z,-0.01
2023-01-20T01:59:38.268Z,-0.02
2023-01-20T02:02:26.037Z,-0.01
2023-01-20T02:05:15.708Z,-0.01
2023-01-20T02:08:04.933Z,-0.03
2023-01-20T02:10:53.208Z,-0.01
2023-01-20T02:13:42.639Z,-0.01
2023-01-20T02:16:40.843Z,-0.01
2023-01-20T02:19:59.320Z,-0.01
2023-01-20T02:22:52.990Z,-0.01
2023-01-20T02:25:59.149Z,-0.01
2023-01-20T02:29:30.941Z,0.01
2023-01-20T02:32:31.883Z,0.02
2023-01-20T02:35:27.376Z,0.03
2023-01-20T02:38:26.006Z,0.06
2023-01-20T02:41:21.158Z,0.08
2023-01-20T02:44:16.744Z,0.10
2023-01-20T02:47:10.533Z,0.11
2023-01-20T02:50:06.105Z,0.10
2023-01-20T02:52:56.713Z,0.11
2023-01-20T02:55:47.823Z,0.12
2023-01-20T02:58:40.620Z,0.12
2023-01-20T03:01:33.928Z,0.10
2023-01-20T03:04:25.765Z,0.10
2023-01-20T03:07:16.858Z,0.10
2023-01-20T03:10:09.608Z,0.10
2023-01-20T03:13:00.559Z,0.11
2023-01-20T03:15:59.623Z,0.12
2023-01-20T03:18:48.055Z,0.12
2023-01-20T03:21:36.278Z,0.11
2023-01-20T03:24:27.351Z,0.12
2023-01-20T03:27:15.334Z,0.11
2023-01-20T03:30:03.215Z,0.11
2023-01-20T03:32:52.754Z,0.10
2023-01-20T03:35:41.594Z,0.10
2023-01-20T03:38:29.966Z,0.09
2023-01-20T03:41:31.236Z,0.07
2023-01-20T03:44:29.770Z,0.04
2023-01-20T03:47:26.431Z,0.02
2023-01-20T03:50:26.279Z,0.03
2023-01-20T03:53:26.237Z,0.02
2023-01-20T03:56:20.072Z,0.01
2023-01-20T03:59:13.000Z,0.00
2023-01-20T04:02:07.495Z,-0.02
2023-01-20T04:04:57.485Z,-0.05
2023-01-20T04:07:46.771Z,-0.06
2023-01-20T04:10:37.482Z,-0.08
2023-01-20T04:13:25.121Z,-0.06
2023-01-20T04:16:17.448Z,-0.04
2023-01-20T04:19:05.170Z,-0.05
2023-01-20T04:21:59.089Z,-0.06
2023-01-20T04:24:53.265Z,-0.08
2023-01-20T04:27:41.063Z,-0.08
2023-01-20T04:30:29.072Z,-0.08
2023-01-20T04:33:18.551Z,-0.10
2023-01-20T04:36:07.209Z,-0.13
2023-01-20T04:38:54.848Z,-0.15
2023-01-20T04:41:42.552Z,-0.16
2023-01-20T04:44:30.518Z,-0.14
2023-01-20T04:47:18.406Z,-0.14
2023-01-20T04:50:08.986Z,-0.16
2023-01-20T04:52:57.702Z,-0.18
2023-01-20T04:55:46.901Z,-0.19
2023-01-20T04:58:34.441Z,-0.19
2023-01-20T05:01:22.517Z,-0.22
2023-01-20T05:04:10.390Z,-0.25
2023-01-20T05:06:59.850Z,-0.25
2023-01-20T05:09:47.779Z,-0.27
2023-01-20T05:12:36.537Z,-0.29
2023-01-20T05:15:25.332Z,-0.31
2023-01-20T05:18:13.274Z,-0.33
2023-01-20T05:21:01.218Z,-0.36
2023-01-20T05:23:50.221Z,-0.38
2023-01-20T05:26:38.158Z,-0.41
2023-01-20T05:29:26.225Z,-0.44
2023-01-20T05:32:14.153Z,-0.48
2023-01-20T05:35:04.189Z,-0.50
2023-01-20T05:37:57.957Z,-0.51
2023-01-20T05:40:47.431Z,-0.52
2023-01-20T05:43:35.789Z,-0.55
2023-01-20T05:46:24.209Z,-0.54
2023-01-20T05:49:13.048Z,-0.55
2023-01-20T05:52:01.227Z,-0.56
2023-01-20T05:54:49.130Z,-0.56
2023-01-20T05:57:38.956Z,-0.56
2023-01-20T06:00:26.661Z,-0.57
2023-01-20T06:03:14.573Z,-0.56
2023-01-20T06:06:04.149Z,-0.52
2023-01-20T06:08:54.475Z,-0.53
2023-01-20T06:11:42.403Z,-0.53
2023-01-20T06:14:31.615Z,-0.49
2023-01-20T06:17:20.345Z,-0.47
2023-01-20T06:20:09.705Z,-0.46
2023-01-20T06:22:58.002Z,-0.46
2023-01-20T06:25:45.928Z,-0.43
2023-01-20T06:28:36.289Z,-0.43
2023-01-20T06:31:27.583Z,-0.41
2023-01-20T06:34:15.961Z,-0.40
2023-01-20T06:37:04.577Z,-0.39
2023-01-20T06:39:52.373Z,-0.39
2023-01-20T06:42:43.534Z,-0.39
2023-01-20T06:45:31.369Z,-0.37
2023-01-20T06:48:20.577Z,-0.36
2023-01-20T06:51:11.116Z,-0.36
2023-01-20T06:53:59.765Z,-0.35
2023-01-20T06:56:47.967Z,-0.36
2023-01-20T06:59:35.937Z,-0.36
2023-01-20T07:02:23.989Z,-0.33
2023-01-20T07:05:13.508Z,-0.32
2023-01-20T07:08:04.617Z,-0.32
2023-01-20T07:10:53.037Z,-0.32
2023-01-20T07:13:41.645Z,-0.32
2023-01-20T07:16:36.549Z,-0.30
2023-01-20T07:19:24.592Z,-0.30
2023-01-20T07:22:14.195Z,-0.27
2023-01-20T07:25:02.807Z,-0.26
2023-01-20T07:27:51.195Z,-0.26
2023-01-20T07:30:43.439Z,-0.25
2023-01-20T07:33:31.730Z,-0.24
2023-01-20T07:36:20.922Z,-0.24
2023-01-20T07:39:13.202Z,-0.24
2023-01-20T07:42:01.132Z,-0.23
2023-01-20T07:44:48.757Z,-0.24
2023-01-20T07:47:36.897Z,-0.22
2023-01-20T07:50:24.915Z,-0.22
2023-01-20T07:53:12.916Z,-0.20
2023-01-20T07:56:05.300Z,-0.19
2023-01-20T07:58:54.049Z,-0.17
2023-01-20T08:01:43.662Z,-0.16
2023-01-20T08:04:31.542Z,-0.13
2023-01-20T08:07:19.425Z,-0.12
2023-01-20T08:10:08.538Z,-0.11
2023-01-20T08:12:57.611Z,-0.07
2023-01-20T08:15:45.659Z,-0.04
2023-01-20T08:18:35.289Z,-0.03
2023-01-20T08:21:25.272Z,0.00
2023-01-20T08:24:13.184Z,0.03
2023-01-20T08:27:01.175Z,0.04
2023-01-20T08:29:50.558Z,0.08
2023-01-20T08:32:38.426Z,0.11
2023-01-20T08:35:26.127Z,0.14
2023-01-20T08:38:14.243Z,0.17
2023-01-20T08:41:02.081Z,0.21
2023-01-20T08:43:55.250Z,0.25
2023-01-20T08:46:45.812Z,0.28
2023-01-20T08:49:34.044Z,0.30
2023-01-20T08:52:22.248Z,0.35
2023-01-20T08:55:12.073Z,0.38
2023-01-20T08:58:02.021Z,0.41
2023-01-20T09:00:49.941Z,0.43
2023-01-20T09:03:49.405Z,0.44
2023-01-20T09:06:50.253Z,0.48
2023-01-20T09:09:39.429Z,0.51
2023-01-20T09:12:27.260Z,0.53
2023-01-20T09:15:15.667Z,0.55
2023-01-20T09:18:03.574Z,0.58
2023-01-20T09:20:53.047Z,0.58
2023-01-20T09:23:42.788Z,0.61
2023-01-20T09:26:38.295Z,0.61
2023-01-20T09:29:26.647Z,0.63
2023-01-20T09:32:15.575Z,0.64
2023-01-20T09:35:03.549Z,0.65
2023-01-20T09:38:10.799Z,0.68
2023-01-20T09:41:29.431Z,0.71
2023-01-20T09:44:42.696Z,0.74
2023-01-20T09:47:32.701Z,0.78
2023-01-20T09:50:48.057Z,0.81
2023-01-20T09:53:57.459Z,0.87
2023-01-20T09:56:53.337Z,0.90
2023-01-20T09:59:46.254Z,0.95
2023-01-20T10:02:36.046Z,1.00
2023-01-20T10:05:32.914Z,1.06
2023-01-20T10:08:25.720Z,1.10
2023-01-20T10:11:19.280Z,1.15
2023-01-20T10:14:15.032Z,1.20
2023-01-20T10:17:09.289Z,1.28
2023-01-20T10:20:04.078Z,1.33
2023-01-20T10:22:57.297Z,1.39
2023-01-20T10:25:47.985Z,1.45
2023-01-20T10:28:42.486Z,1.51
2023-01-20T10:31:34.718Z,1.58
2023-01-20T10:34:23.565Z,1.66
2023-01-20T10:37:12.841Z,1.75
2023-01-20T10:40:07.313Z,1.75
2023-01-20T10:42:59.706Z,1.81
2023-01-20T10:46:14.753Z,1.91
2023-01-20T10:49:31.748Z,1.99
2023-01-20T10:52:43.465Z,2.06
2023-01-20T10:55:47.304Z,2.11
2023-01-20T10:58:37.339Z,2.18
2023-01-20T11:01:29.034Z,2.22
2023-01-20T11:04:22.141Z,2.28
2023-01-20T11:07:17.515Z,2.31
2023-01-20T11:10:16.096Z,2.35
2023-01-20T11:13:06.608Z,2.37
2023-01-20T11:15:58.095Z,2.40
2023-01-20T11:18:58.158Z,2.44
2023-01-20T11:21:45.878Z,2.46
2023-01-20T11:24:42.294Z,2.45
2023-01-20T11:27:38.089Z,2.49
2023-01-20T11:30:29.661Z,2.51
2023-01-20T11:33:20.240Z,2.56
2023-01-20T11:36:19.901Z,2.62
2023-01-20T11:39:24.878Z,2.68
2023-01-20T11:42:17.490Z,2.75
2023-01-20T11:45:20.734Z,2.81
2023-01-20T11:48:21.594Z,2.85
2023-01-20T11:51:21.515Z,2.88
2023-01-20T11:54:16.826Z,2.87
2023-01-20T11:57:08.675Z,2.85
2023-01-20T11:59:56.428Z,2.90
2023-01-20T12:02:44.798Z,2.93
2023-01-20T12:05:40.372Z,2.99
2023-01-20T12:08:35.142Z,3.03
2023-01-20T12:11:35.426Z,3.05
2023-01-20T12:14:29.765Z,3.09
2023-01-20T12:17:42.604Z,3.10
2023-01-20T12:20:45.602Z,3.09
2023-01-20T12:23:48.936Z,3.09
2023-01-20T12:26:36.910Z,3.11
2023-01-20T12:29:38.900Z,3.08
2023-01-20T12:32:29.228Z,3.09
2023-01-20T12:35:18.888Z,3.05
2023-01-20T12:38:09.411Z,3.07
2023-01-20T12:41:05.596Z,3.07
2023-01-20T12:44:04.742Z,3.10
2023-01-20T12:47:00.787Z,3.13
2023-01-20T12:50:07.108Z,3.14
2023-01-20T12:53:16.987Z,3.13
2023-01-20T12:56:18.946Z,3.17
2023-01-20T12:59:18.560Z,3.22
2023-01-20T13:02:28.618Z,3.24
2023-01-20T13:05:42.532Z,3.27
2023-01-20T13:08:36.449Z,3.28
2023-01-20T13:11:41.860Z,3.30
2023-01-20T13:14:40.647Z,3.31
2023-01-20T13:17:40.425Z,3.34
2023-01-20T13:20:31.175Z,3.35
2023-01-20T13:23:24.225Z,3.31
2023-01-20T13:26:12.739Z,3.29
2023-01-20T13:29:02.371Z,3.30
2023-01-20T13:31:52.832Z,3.29
2023-01-20T13:34:44.121Z,3.27
2023-01-20T13:37:43.460Z,3.27
2023-01-20T13:40:52.189Z,3.25
2023-01-20T13:44:22.514Z,3.21
2023-01-20T13:47:12.110Z,3.19
2023-01-20T13:50:25.513Z,3.16
2023-01-20T13:53:28.022Z,3.14
2023-01-20T13:56:33.164Z,3.10
2023-01-20T13:59:22.517Z,3.08
2023-01-20T14:02:18.336Z,3.05
2023-01-20T14:05:29.123Z,3.02
2023-01-20T14:08:17.362Z,2.99
2023-01-20T14:11:10.694Z,2.98
2023-01-20T14:14:01.858Z,2.96
2023-01-20T14:16:51.926Z,2.93
2023-01-20T14:19:42.121Z,2.92
2023-01-20T14:22:33.119Z,2.92
2023-01-20T14:25:27.853Z,2.88
2023-01-20T14:28:21.800Z,2.81
2023-01-20T14:31:22.677Z,2.79
2023-01-20T14:34:30.348Z,2.77
2023-01-20T14:37:27.172Z,2.72
2023-01-20T14:40:24.014Z,2.70
2023-01-20T14:43:19.494Z,2.69
2023-01-20T14:46:11.722Z,2.66
2023-01-20T14:49:00.171Z,2.64
2023-01-20T14:51:51.792Z,2.61
2023-01-20T14:54:43.407Z,2.58
2023-01-20T14:57:32.784Z,2.54
2023-01-20T15:00:26.524Z,2.51
2023-01-20T15:03:19.636Z,2.49
2023-01-20T15:06:20.573Z,2.45
2023-01-20T15:09:32.065Z,2.44
2023-01-20T15:12:42.732Z,2.41
2023-01-20T15:15:32.005Z,2.39
2023-01-20T15:18:23.030Z,2.37
2023-01-20T15:21:26.610Z,2.34
2023-01-20T15:24:16.232Z,2.31
2023-01-20T15:27:22.924Z,2.28
2023-01-20T15:30:20.709Z,2.24
2023-01-20T15:33:10.224Z,2.21
2023-01-20T15:36:00.993Z,2.21
2023-01-20T15:38:49.732Z,2.18
2023-01-20T15:41:37.288Z,2.16
2023-01-20T15:44:27.292Z,2.15
2023-01-20T15:47:22.225Z,2.13
2023-01-20T15:50:19.646Z,2.10
2023-01-20T15:53:07.755Z,2.06
2023-01-20T15:55:55.772Z,2.05
2023-01-20T15:58:43.715Z,2.01
2023-01-20T16:01:33.177Z,1.99
2023-01-20T16:04:21.187Z,1.97
2023-01-20T16:07:13.574Z,1.96
2023-01-20T16:10:01.429Z,1.93
2023-01-20T16:12:51.821Z,1.89
2023-01-20T16:15:42.039Z,1.88
2023-01-20T16:18:31.339Z,1.84
2023-01-20T16:21:22.853Z,1.81
2023-01-20T16:24:11.879Z,1.78
2023-01-20T16:27:20.069Z,1.76
2023-01-20T16:30:12.540Z,1.72
2023-01-20T16:33:00.553Z,1.71
2023-01-20T16:35:51.241Z,1.68
2023-01-20T16:38:39.126Z,1.66
2023-01-20T16:41:31.253Z,1.62
2023-01-20T16:44:19.184Z,1.58
2023-01-20T16:47:08.409Z,1.54
2023-01-20T16:49:56.307Z,1.50
2023-01-20T16:52:45.848Z,1.44
2023-01-20T16:55:33.411Z,1.39
2023-01-20T16:58:21.596Z,1.33
2023-01-20T17:01:12.248Z,1.28
2023-01-20T17:04:02.198Z,1.21
2023-01-20T17:06:50.036Z,1.15
2023-01-20T17:09:39.481Z,1.08
2023-01-20T17:12:27.437Z,1.00
2023-01-20T17:15:15.515Z,0.93
2023-01-20T17:18:03.593Z,0.87
2023-01-20T17:20:53.170Z,0.79
2023-01-20T17:23:41.147Z,0.71
2023-01-20T17:26:31.083Z,0.64
2023-01-20T17:29:21.843Z,0.55
2023-01-20T17:32:09.562Z,0.48
2023-01-20T17:34:57.348Z,0.41
2023-01-20T17:37:45.937Z,0.34
2023-01-20T17:40:34.258Z,0.25
2023-01-20T17:43:23.664Z,0.18
2023-01-20T17:46:23.931Z,0.11
2023-01-20T17:49:11.626Z,0.06
2023-01-20T17:51:59.550Z,-0.01
2023-01-20T17:54:47.687Z,-0.06
2023-01-20T17:57:35.543Z,-0.15
2023-01-20T18:00:25.262Z,-0.21
2023-01-20T18:03:13.999Z,-0.29
2023-01-20T18:06:02.084Z,-0.36
2023-01-20T18:08:54.021Z,-0.44
2023-01-20T18:11:43.566Z,-0.50
2023-01-20T18:14:31.516Z,-0.57
2023-01-20T18:17:20.753Z,-0.61
2023-01-20T18:20:10.923Z,-0.65
2023-01-20T18:22:58.661Z,-0.72
2023-01-20T18:25:46.681Z,-0.79
2023-01-20T18:28:35.681Z,-0.85
2023-01-20T18:31:24.935Z,-0.89
2023-01-20T18:34:16.212Z,-0.92
2023-01-20T18:37:04.419Z,-0.98
2023-01-20T18:39:52.434Z,-1.02
2023-01-20T18:42:40.694Z,-1.08
2023-01-20T18:45:29.022Z,-1.15
2023-01-20T18:48:16.968Z,-1.21
2023-01-20T18:51:06.642Z,-1.26
2023-01-20T18:53:57.358Z,-1.27
2023-01-20T18:56:45.755Z,-1.35
2023-01-20T18:59:33.529Z,-1.40
2023-01-20T19:02:21.318Z,-1.45
2023-01-20T19:05:09.926Z,-1.46
2023-01-20T19:07:58.964Z,-1.49
2023-01-20T19:10:47.006Z,-1.51
2023-01-20T19:13:34.933Z,-1.54
2023-01-20T19:16:25.812Z,-1.56
2023-01-20T19:19:15.600Z,-1.58
2023-01-20T19:22:03.689Z,-1.65
2023-01-20T19:24:53.050Z,-1.70
2023-01-20T19:27:40.928Z,-1.76
2023-01-20T19:30:29.318Z,-1.81
2023-01-20T19:33:17.492Z,-1.85
2023-01-20T19:36:07.352Z,-1.87
2023-01-20T19:38:55.523Z,-1.90
2023-01-20T19:41:44.280Z,-1.93
2023-01-20T19:44:32.201Z,-1.95
2023-01-20T19:47:20.031Z,-1.96
2023-01-20T19:50:08.889Z,-1.99
2023-01-20T19:52:56.774Z,-2.00
2023-01-20T19:55:44.834Z,-2.02
2023-01-20T19:58:34.940Z,-2.04
2023-01-20T20:01:25.115Z,-2.04
2023-01-20T20:04:14.081Z,-2.07
2023-01-20T20:07:01.746Z,-2.07
2023-01-20T20:09:49.706Z,-2.10
2023-01-20T20:12:37.605Z,-2.11
2023-01-20T20:15:27.045Z,-2.12
2023-01-20T20:18:14.696Z,-2.12
2023-01-20T20:21:02.868Z,-2.12
2023-01-20T20:23:51.686Z,-2.15
2023-01-20T20:26:40.095Z,-2.17
2023-01-20T20:29:28.177Z,-2.18
2023-01-20T20:32:17.914Z,-2.16
2023-01-20T20:35:07.132Z,-2.16
2023-01-20T20:37:55.262Z,-2.14
2023-01-20T20:40:43.358Z,-2.15
2023-01-20T20:43:31.307Z,-2.21
2023-01-20T20:46:19.080Z,-2.28
2023-01-20T20:49:09.917Z,-2.33
2023-01-20T20:51:58.018Z,-2.33
2023-01-20T20:54:46.567Z,-2.32
2023-01-20T20:57:34.624Z,-2.34
2023-01-20T21:00:25.066Z,-2.36
2023-01-20T21:03:12.603Z,-2.36
2023-01-20T21:06:03.543Z,-2.38
2023-01-20T21:08:51.605Z,-2.42
2023-01-20T21:11:41.550Z,-2.45
2023-01-20T21:14:32.014Z,-2.47
2023-01-20T21:17:19.904Z,-2.52
2023-01-20T21:20:09.207Z,-2.55
2023-01-20T21:22:58.240Z,-2.56
2023-01-20T21:25:46.436Z,-2.56
2023-01-20T21:28:35.646Z,-2.60
2023-01-20T21:31:26.653Z,-2.60
2023-01-20T21:34:15.992Z,-2.64
2023-01-20T21:37:03.778Z,-2.68
2023-01-20T21:39:53.235Z,-2.70
2023-01-20T21:42:41.191Z,-2.70
2023-01-20T21:45:28.276Z,-2.68
2023-01-20T21:48:30.088Z,-2.68
2023-01-20T21:51:35.318Z,-2.65
2023-01-20T21:54:23.224Z,-2.63
2023-01-20T21:57:12.227Z,-2.62
2023-01-20T22:00:00.521Z,-2.65
2023-01-20T22:02:49.805Z,-2.68
2023-01-20T22:05:40.033Z,-2.65
2023-01-20T22:08:28.066Z,-2.60
2023-01-20T22:11:16.025Z,-2.53
2023-01-20T22:14:05.466Z,-2.47
2023-01-20T22:16:53.297Z,-2.46
2023-01-20T22:19:41.373Z,-2.42
2023-01-20T22:22:29.343Z,-2.40
2023-01-20T22:25:17.206Z,-2.39
2023-01-20T22:28:05.205Z,-2.38
2023-01-20T22:30:54.538Z,-2.36
2023-01-20T22:33:42.700Z,-2.36
2023-01-20T22:36:31.295Z,-2.35
2023-01-20T22:39:19.158Z,-2.36
2023-01-20T22:42:07.621Z,-2.38
2023-01-20T22:44:55.732Z,-2.40
2023-01-20T22:47:44.911Z,-2.46
2023-01-20T22:50:34.073Z,-2.49
2023-01-20T22:53:21.863Z,-2.49
2023-01-20T22:56:13.025Z,-2.48
2023-01-20T22:59:02.033Z,-2.48
2023-01-20T23:01:49.771Z,-2.53
2023-01-20T23:04:38.916Z,-2.58
2023-01-20T23:07:27.067Z,-2.63
2023-01-20T23:10:35.344Z,-2.66
2023-01-20T23:13:23.257Z,-2.68
2023-01-20T23:16:15.571Z,-2.67
2023-01-20T23:19:05.579Z,-2.66
2023-01-20T23:21:54.991Z,-2.65
2023-01-20T23:24:43.163Z,-2.64
2023-01-20T23:27:30.982Z,-2.61
2023-01-20T23:30:19.251Z,-2.58
2023-01-20T23:33:08.416Z,-2.55
2023-01-20T23:35:56.537Z,-2.50
2023-01-20T23:38:46.689Z,-2.47
2023-01-20T23:41:34.501Z,-2.45
2023-01-20T23:44:22.463Z,-2.42
2023-01-20T23:47:10.590Z,-2.39
2023-01-20T23:49:58.569Z,-2.34
2023-01-20T23:52:46.502Z,-2.33
2023-01-20T23:55:38.363Z,-2.30
2023-01-20T23:58:26.310Z,-2.28
